BIKFBGBW

Guest
Details From BIKF - Keflavik
To BGBW - Narsarsuaq
Flight Number -
Tags decoded
Created
Modified
Stats Distance 708 nm / 1,312 km
Max Altitude 0 ft / 0 m
Waypoints 3
Social Downloads 8
Likes 0
Share VATSIM

Download

Looking for another format? Having issues loading an existing format? Contact us
Advertisement - Login to hide

Notes

Requested: BIKF JH BGBW

Route

BIKF JH BGBW

ID Type Via Altitude Latitude Longitude Leg Dist Tot Dist Heading (true) Name
O BIKF APT - 0 ft / 0 m 63.98161˚ -22.61456˚ - 0 nm - Keflavik
JH NDB - 0 ft / 0 m 60.72333˚ -46.02944˚ 676 nm 676 nm 264° / 243° QAQORTOQ NDB
O BGBW APT - 0 ft / 0 m 61.16052˚ -45.42598˚ 31 nm 708 nm 34° / 34° Narsarsuaq

Altitude Profile

Advertisement - Login to hide

Weather


0- 5 10 15 20 25 30 35+ Temperature / ° C

Clouds and Precipitation
Forecast for 2017-12-15 18:00 UTC. Updated 2 hours ago

Ground ~20,000 ft ~40,000 ft Winds

BIKF

Details ICAO BIKF (KEF)
Name Keflavik
Region Iceland
Timezone Atlantic/Reykjavik (UTC+0.0)
Stats Elevation 170 ft / 52 m (AMSL)
Location 63.981612° -22.614563°
Runways 2
Magnetic Variation 14.067° W

METAR

BIKF 151430Z 08004KT CAVOK M04/M09 Q1014 R01/390050

Decode

TAF

TAF BIKF 151359Z 1515/1615 11005KT CAVOK TX06/1615Z TNM05/1521Z BECMG 1600/1603 13015KT 9999 SCT020 BKN030 BECMG 1606/1609 13020G30KT 7000 -SN BKN010 OVC020 BECMG 1611/1613 9999 -RA BKN015 OVC025 TEMPO 1613/1615 5000 RA BR BKN010 OVC015

Decode

Departure Runways

ID Width Length Bearing (true) Bearing (mag) Surface Threshold Offset Overrun Length
02 197 ft / 60 m 9,997 ft / 3,047 m 0.02° 14.09° Asphalt 0 ft / 0 m 492 ft / 150 m
11 197 ft / 60 m 10,022 ft / 3,055 m 89.97° 104.04° Asphalt 0 ft / 0 m 246 ft / 75 m
20 197 ft / 60 m 9,997 ft / 3,047 m 180.02° 194.09° Asphalt 0 ft / 0 m 98 ft / 30 m
29 197 ft / 60 m 10,022 ft / 3,055 m 270.02° 284.09° Asphalt 0 ft / 0 m 197 ft / 60 m

BGBW

Details ICAO BGBW (UAK)
Name Narsarsuaq
Region Greenland
Timezone America/Godthab (UTC-3.0)
Stats Elevation 112 ft / 34 m (AMSL)
Location 61.160516° -45.425976°
Runways 1
Magnetic Variation 22.905° W

METAR

BGBW 151350Z 07018KT 9999 FEW080 SCT160 BKN200 03/M11 Q0999

Decode

TAF

Not found

Destination Runways

ID Width Length Bearing (true) Bearing (mag) Surface Threshold Offset Overrun Length
07 148 ft / 45 m 5,921 ft / 1,805 m 40.57° 63.47° Concrete 0 ft / 0 m 0 ft / 0 m
25 148 ft / 45 m 5,921 ft / 1,805 m 220.58° 243.48° Concrete 0 ft / 0 m 279 ft / 85 m

Popular Alternatives